Time;durP1;ratioP1;P1;durP2;ratioP2;P2;SDS_P1;SDS_P2;PMS_P1;PMS_P2;Temp;Humidity;BMP_temperature;BMP_pressure;BME280_temperature;BME280_humidity;BME280_pressure;Samples;Min_cycle;Max_cycle;Signal;HPM_P1;HPM_P2
2023/01/09 00:00:25;;;;;;;22.47;15.27;;;24.20;41.40;;;;;;5053195;27;92132;-59
2023/01/09 00:02:53;;;;;;;19.07;12.33;;;24.20;41.40;;;;;;5042193;27;91934;-60
2023/01/09 00:05:21;;;;;;;20.63;13.43;;;24.20;41.50;;;;;;5054525;27;94216;-59
2023/01/09 00:07:50;;;;;;;21.37;11.37;;;24.20;41.50;;;;;;5057585;27;94088;-59
2023/01/09 00:10:18;;;;;;;17.87;10.87;;;24.20;41.50;;;;;;5058492;27;92072;-59
2023/01/09 00:12:46;;;;;;;17.03;11.37;;;24.10;41.50;;;;;;5057114;27;91224;-59
2023/01/09 00:15:14;;;;;;;14.83;9.67;;;24.10;41.50;;;;;;5044569;27;94253;-60
2023/01/09 00:17:42;;;;;;;15.63;10.43;;;24.10;41.60;;;;;;5059431;27;94005;-58
2023/01/09 00:20:11;;;;;;;17.60;9.03;;;24.10;41.60;;;;;;5049494;27;93112;-58
2023/01/09 00:22:39;;;;;;;11.67;8.33;;;24.10;41.60;;;;;;5038593;28;92540;-59
2023/01/09 00:25:09;;;;;;;15.50;8.90;;;24.10;41.60;;;;;;5038458;27;93203;-59
2023/01/09 00:27:37;;;;;;;10.23;6.80;;;24.10;41.70;;;;;;5038811;27;93073;-58
2023/01/09 00:30:06;;;;;;;12.43;8.37;;;24.00;41.60;;;;;;5039445;27;92624;-59
2023/01/09 00:32:34;;;;;;;14.53;8.10;;;24.10;41.70;;;;;;5039195;27;92045;-58
2023/01/09 00:35:02;;;;;;;11.13;7.97;;;24.00;41.60;;;;;;5049100;27;94410;-58
2023/01/09 00:37:30;;;;;;;11.77;8.20;;;24.00;41.70;;;;;;5066864;27;94802;-58
2023/01/09 00:39:58;;;;;;;10.67;6.77;;;24.00;41.70;;;;;;5061160;27;92068;-59
2023/01/09 00:42:29;;;;;;;29.63;17.60;;;24.00;41.70;;;;;;5066824;27;92087;-58
2023/01/09 00:44:58;;;;;;;41.83;24.63;;;23.90;41.70;;;;;;5068662;27;94265;-59
2023/01/09 00:47:27;;;;;;;36.20;22.30;;;23.90;41.60;;;;;;5058073;27;93948;-58
2023/01/09 00:49:55;;;;;;;56.20;32.77;;;23.80;42.20;;;;;;5057832;27;92079;-58
2023/01/09 00:52:23;;;;;;;33.23;20.07;;;23.80;41.50;;;;;;5058410;27;92015;-58
2023/01/09 00:54:51;;;;;;;21.30;14.40;;;23.80;41.40;;;;;;5058096;27;94394;-58
2023/01/09 00:57:19;;;;;;;27.30;17.70;;;23.80;41.40;;;;;;5053687;27;93909;-58
2023/01/09 00:59:49;;;;;;;21.47;15.60;;;23.70;41.30;;;;;;5057817;27;92040;-58
2023/01/09 01:02:17;;;;;;;20.80;13.00;;;23.70;41.40;;;;;;5041104;27;91463;-58
2023/01/09 01:07:41;;;;;;;17.67;13.00;;;23.60;41.30;;;;;;5040532;27;93836;-58
2023/01/09 01:10:12;;;;;;;18.30;12.37;;;23.60;41.30;;;;;;5055303;27;93024;-57
2023/01/09 01:12:40;;;;;;;15.87;11.80;;;23.60;41.30;;;;;;5056154;27;92033;-59
2023/01/09 01:15:11;;;;;;;17.07;9.73;;;23.60;41.30;;;;;;5048050;27;93263;-58
2023/01/09 01:17:40;;;;;;;17.83;11.03;;;23.60;41.40;;;;;;5040425;27;93949;-58
2023/01/09 01:20:11;;;;;;;12.87;10.17;;;23.60;41.40;;;;;;5053285;27;92275;-58
2023/01/09 01:22:41;;;;;;;14.57;10.13;;;23.50;41.40;;;;;;5061184;27;92852;-58
2023/01/09 01:25:09;;;;;;;15.10;10.37;;;23.50;41.40;;;;;;5060516;27;94288;-59
2023/01/09 01:27:37;;;;;;;13.17;9.17;;;23.50;41.40;;;;;;5061532;27;93021;-59
2023/01/09 01:30:06;;;;;;;11.60;9.00;;;23.50;41.40;;;;;;5060964;27;92131;-59
2023/01/09 01:32:35;;;;;;;15.90;9.60;;;23.50;41.50;;;;;;5056931;27;92061;-60
2023/01/09 01:35:04;;;;;;;9.20;7.40;;;23.50;41.50;;;;;;5050247;27;94102;-59
2023/01/09 01:37:33;;;;;;;12.47;8.83;;;23.50;41.50;;;;;;5060765;27;94184;-60
2023/01/09 01:40:01;;;;;;;11.60;7.77;;;23.50;41.50;;;;;;5061398;27;91918;-60
2023/01/09 01:42:29;;;;;;;14.73;8.40;;;23.50;41.60;;;;;;5050119;27;92085;-57
2023/01/09 01:45:03;;;;;;;11.87;8.50;;;23.50;41.60;;;;;;5082169;27;95482;-57
2023/01/09 01:47:36;;;;;;;8.20;6.03;;;23.40;41.60;;;;;;5069492;27;92969;-59
2023/01/09 01:50:08;;;;;;;11.03;6.87;;;23.40;41.60;;;;;;5062039;27;92011;-57
2023/01/09 01:52:36;;;;;;;9.57;6.27;;;23.40;41.60;;;;;;5055850;27;91467;-59
2023/01/09 01:55:05;;;;;;;9.23;6.40;;;23.40;41.60;;;;;;5041333;28;93274;-59
2023/01/09 01:57:33;;;;;;;7.70;6.50;;;23.40;41.70;;;;;;5041182;27;92816;-57
2023/01/09 02:00:02;;;;;;;8.97;6.07;;;23.40;41.70;;;;;;5040983;27;93172;-58
2023/01/09 02:02:30;;;;;;;6.47;5.67;;;23.30;41.70;;;;;;5042274;27;92401;-59
2023/01/09 02:05:00;;;;;;;10.50;5.67;;;23.30;41.70;;;;;;5045525;27;93118;-58
2023/01/09 02:07:28;;;;;;;8.43;5.53;;;23.30;41.70;;;;;;5048115;27;94139;-59
2023/01/09 02:09:57;;;;;;;6.83;5.07;;;23.30;41.80;;;;;;5042770;27;92009;-58
2023/01/09 02:12:26;;;;;;;6.23;5.00;;;23.30;41.80;;;;;;5041445;28;92043;-59
2023/01/09 02:14:57;;;;;;;7.97;4.70;;;23.30;41.80;;;;;;5040356;28;94424;-58
2023/01/09 02:17:51;;;;;;;7.80;4.77;;;23.30;41.90;;;;;;5041210;27;92831;-58
2023/01/09 02:20:45;;;;;;;8.57;5.27;;;23.20;41.80;;;;;;5048184;27;94007;-59
2023/01/09 02:23:31;;;;;;;5.10;4.07;;;23.20;41.90;;;;;;5047625;27;92119;-58
2023/01/09 02:26:12;;;;;;;5.53;4.60;;;23.10;41.80;;;;;;5060215;27;96716;-57
2023/01/09 02:28:52;;;;;;;7.07;4.53;;;23.10;41.80;;;;;;5048013;27;94670;-58
2023/01/09 02:31:23;;;;;;;4.50;4.07;;;23.10;41.90;;;;;;5040829;27;92071;-57
2023/01/09 02:33:54;;;;;;;5.50;4.27;;;23.10;41.90;;;;;;5043074;27;92142;-58
2023/01/09 02:36:25;;;;;;;5.07;3.57;;;23.10;41.90;;;;;;5048426;27;94211;-58
2023/01/09 02:38:58;;;;;;;5.73;3.90;;;23.10;41.90;;;;;;5061120;27;93887;-58
2023/01/09 02:41:30;;;;;;;4.43;2.93;;;23.10;41.90;;;;;;5044520;27;91884;-59
2023/01/09 02:44:17;;;;;;;4.83;3.40;;;23.10;42.00;;;;;;5046041;27;91329;-58
2023/01/09 02:46:46;;;;;;;6.43;2.93;;;23.00;42.00;;;;;;5061311;27;94144;-57
2023/01/09 02:49:14;;;;;;;4.60;3.40;;;23.10;42.00;;;;;;5057011;27;92813;-59
2023/01/09 02:51:50;;;;;;;3.47;2.70;;;23.00;42.00;;;;;;5050534;27;92992;-59
2023/01/09 02:54:27;;;;;;;2.93;2.53;;;23.00;42.00;;;;;;5041657;27;92045;-60
2023/01/09 02:57:13;;;;;;;3.73;2.37;;;23.00;42.00;;;;;;5040485;28;94202;-58
2023/01/09 02:59:48;;;;;;;4.27;2.63;;;23.00;42.10;;;;;;5040786;27;94177;-59
2023/01/09 03:02:33;;;;;;;4.67;3.03;;;23.00;42.00;;;;;;5051081;27;92117;-58
2023/01/09 03:05:06;;;;;;;3.87;2.07;;;22.90;42.00;;;;;;5045458;27;92043;-57
2023/01/09 03:07:36;;;;;;;2.37;2.17;;;22.90;42.00;;;;;;5047193;27;94172;-58
2023/01/09 03:10:08;;;;;;;4.03;2.57;;;22.90;42.00;;;;;;5048681;27;92574;-59
2023/01/09 03:12:36;;;;;;;2.73;2.17;;;22.90;42.00;;;;;;5061242;27;92178;-58
2023/01/09 03:15:05;;;;;;;2.93;1.87;;;22.90;42.70;;;;;;5055980;27;92130;-58
2023/01/09 03:17:37;;;;;;;2.47;2.27;;;22.90;42.10;;;;;;5040005;27;95418;-58
2023/01/09 03:20:06;;;;;;;3.07;2.53;;;22.90;42.10;;;;;;5048778;27;94813;-58
2023/01/09 03:22:34;;;;;;;2.67;2.00;;;22.90;42.10;;;;;;5053608;27;92009;-57
2023/01/09 03:25:02;;;;;;;2.70;2.00;;;22.90;42.10;;;;;;5051255;27;92187;-58
2023/01/09 03:27:30;;;;;;;2.77;2.07;;;22.90;42.20;;;;;;5059610;27;93061;-58
2023/01/09 03:29:58;;;;;;;3.70;2.00;;;22.80;42.10;;;;;;5057072;27;92843;-58
2023/01/09 03:32:27;;;;;;;3.33;2.37;;;22.80;42.10;;;;;;5055556;27;92017;-57
2023/01/09 03:34:57;;;;;;;3.23;2.13;;;22.80;42.20;;;;;;5081609;27;91335;-59
2023/01/09 03:37:25;;;;;;;2.73;1.90;;;22.80;42.20;;;;;;5065853;27;93126;-58
2023/01/09 03:39:52;;;;;;;2.73;2.07;;;22.80;42.20;;;;;;5058821;27;94231;-58
2023/01/09 03:42:21;;;;;;;2.37;2.13;;;22.80;42.20;;;;;;5053940;27;92802;-57
2023/01/09 03:44:49;;;;;;;2.23;1.47;;;22.80;42.20;;;;;;5050227;27;92089;-57
2023/01/09 03:47:17;;;;;;;5.53;1.90;;;22.80;42.30;;;;;;5045334;27;93124;-59
2023/01/09 03:49:45;;;;;;;4.20;1.37;;;22.70;42.20;;;;;;5057209;27;92930;-58
2023/01/09 03:52:15;;;;;;;2.20;1.60;;;22.70;42.20;;;;;;5058328;27;91969;-58
2023/01/09 03:54:42;;;;;;;3.13;1.73;;;22.70;42.30;;;;;;5040289;28;91989;-58
2023/01/09 03:57:11;;;;;;;3.67;1.97;;;22.70;42.30;;;;;;5052713;27;93226;-58
2023/01/09 03:59:39;;;;;;;1.23;1.13;;;22.70;42.30;;;;;;5047314;27;92721;-58
2023/01/09 04:02:07;;;;;;;2.57;1.50;;;22.70;42.30;;;;;;5080757;27;91951;-57
2023/01/09 04:04:35;;;;;;;1.50;1.40;;;22.70;42.30;;;;;;5081343;27;92001;-57
2023/01/09 04:07:03;;;;;;;1.57;1.47;;;22.70;42.30;;;;;;5055465;27;95229;-57
2023/01/09 04:09:32;;;;;;;1.73;1.53;;;22.60;42.20;;;;;;5059666;27;93831;-57
2023/01/09 04:12:00;;;;;;;1.83;1.10;;;22.60;42.90;;;;;;5059751;27;92055;-58
2023/01/09 04:14:28;;;;;;;1.93;1.20;;;22.60;42.20;;;;;;5059870;27;92211;-58
2023/01/09 04:16:56;;;;;;;2.80;1.10;;;22.60;42.20;;;;;;5045904;27;93434;-58
2023/01/09 04:19:24;;;;;;;2.13;1.93;;;22.60;42.30;;;;;;5039506;27;92211;-58
2023/01/09 04:21:52;;;;;;;2.10;1.27;;;22.60;42.30;;;;;;5055439;27;92261;-58
2023/01/09 04:24:20;;;;;;;2.03;1.13;;;22.60;42.30;;;;;;5039587;27;91201;-58
2023/01/09 04:26:49;;;;;;;4.23;1.13;;;22.60;42.30;;;;;;5046225;27;94574;-58
2023/01/09 04:29:18;;;;;;;1.73;1.23;;;22.50;42.30;;;;;;5074915;27;92772;-58
2023/01/09 04:31:45;;;;;;;1.13;1.07;;;22.60;42.40;;;;;;5059098;27;92991;-59
2023/01/09 04:34:14;;;;;;;2.47;1.30;;;22.50;42.30;;;;;;5079801;27;92058;-57
2023/01/09 04:36:42;;;;;;;1.07;0.90;;;22.50;42.30;;;;;;5073066;27;93288;-59
2023/01/09 04:39:10;;;;;;;2.57;1.20;;;22.50;42.40;;;;;;5059420;27;93770;-57
2023/01/09 04:41:50;;;;;;;1.23;1.00;;;22.50;42.40;;;;;;5058712;27;92030;-59
2023/01/09 04:44:21;;;;;;;1.73;0.90;;;22.50;42.40;;;;;;5054569;27;92000;-57
2023/01/09 04:46:49;;;;;;;1.63;0.80;;;22.50;42.40;;;;;;5042105;27;93123;-57
2023/01/09 04:49:17;;;;;;;1.17;1.07;;;22.50;42.40;;;;;;5059838;27;92575;-57
2023/01/09 04:51:44;;;;;;;0.80;0.80;;;22.40;42.40;;;;;;5056707;27;92077;-57
2023/01/09 04:54:13;;;;;;;1.43;1.30;;;22.40;42.40;;;;;;5038921;27;92120;-57
2023/01/09 04:56:41;;;;;;;1.50;0.73;;;22.40;42.40;;;;;;5037466;27;95075;-59
2023/01/09 04:59:09;;;;;;;0.90;0.70;;;22.40;42.40;;;;;;5038349;27;95050;-57
2023/01/09 05:01:38;;;;;;;1.23;0.87;;;22.40;42.40;;;;;;5051440;27;91813;-57
2023/01/09 05:04:06;;;;;;;1.60;1.03;;;22.40;42.40;;;;;;5052448;27;92224;-57
2023/01/09 05:06:34;;;;;;;1.13;1.00;;;22.30;42.40;;;;;;5065577;27;93249;-57
2023/01/09 05:09:02;;;;;;;1.43;1.00;;;22.30;42.40;;;;;;5048797;27;92960;-57
2023/01/09 05:11:30;;;;;;;0.63;0.63;;;22.30;42.40;;;;;;5050362;27;92049;-59
2023/01/09 05:13:58;;;;;;;0.97;0.70;;;22.30;42.40;;;;;;5047356;27;91244;-58
2023/01/09 05:16:26;;;;;;;1.27;0.80;;;22.30;42.40;;;;;;5047412;27;92957;-58
2023/01/09 05:18:56;;;;;;;0.67;0.60;;;22.30;42.40;;;;;;5038459;27;92785;-59
2023/01/09 05:21:24;;;;;;;1.30;0.57;;;22.30;42.50;;;;;;5046200;27;93153;-58
2023/01/09 05:23:52;;;;;;;0.50;0.50;;;22.30;42.40;;;;;;5039610;27;92721;-58
2023/01/09 05:26:22;;;;;;;1.17;0.80;;;22.30;42.40;;;;;;5038178;27;94287;-58
2023/01/09 05:28:51;;;;;;;0.70;0.63;;;22.30;42.40;;;;;;5039431;27;92731;-58
2023/01/09 05:31:19;;;;;;;1.70;0.50;;;22.20;42.30;;;;;;5038752;28;91775;-58
2023/01/09 05:33:47;;;;;;;0.67;0.67;;;22.20;42.30;;;;;;5039046;27;92161;-59
2023/01/09 05:36:16;;;;;;;0.50;0.50;;;22.20;42.30;;;;;;5056799;27;94146;-58
2023/01/09 05:38:44;;;;;;;0.50;0.50;;;22.20;42.30;;;;;;5051047;27;93980;-59
2023/01/09 05:41:12;;;;;;;3.90;1.03;;;22.20;42.30;;;;;;5038757;27;91889;-58
2023/01/09 05:43:40;;;;;;;1.03;0.80;;;22.20;42.30;;;;;;5046224;27;92120;-59
2023/01/09 05:46:09;;;;;;;0.83;0.83;;;22.20;42.40;;;;;;5055565;27;95069;-59
2023/01/09 05:48:37;;;;;;;1.40;0.70;;;22.20;42.40;;;;;;5055290;27;95062;-59
2023/01/09 05:51:05;;;;;;;0.40;0.40;;;22.20;42.40;;;;;;5045604;27;92078;-60
2023/01/09 05:53:35;;;;;;;0.57;0.57;;;22.10;42.40;;;;;;5045069;27;92387;-60
2023/01/09 05:56:03;;;;;;;0.70;0.60;;;22.10;42.40;;;;;;5038059;27;94263;-60
2023/01/09 05:58:31;;;;;;;0.60;0.60;;;22.10;42.40;;;;;;5050205;27;92951;-59
2023/01/09 06:00:59;;;;;;;1.63;0.70;;;22.10;42.40;;;;;;5045265;27;92080;-60
2023/01/09 06:03:27;;;;;;;0.47;0.47;;;22.10;42.40;;;;;;5053150;27;91309;-60
2023/01/09 06:05:56;;;;;;;0.60;0.60;;;22.10;42.50;;;;;;5059629;27;92671;-57
2023/01/09 06:08:24;;;;;;;1.93;0.60;;;22.10;42.50;;;;;;5056818;27;93839;-59
2023/01/09 06:10:54;;;;;;;0.73;0.73;;;22.10;42.50;;;;;;5041096;27;93013;-58
2023/01/09 06:13:22;;;;;;;1.13;0.93;;;22.10;42.50;;;;;;5056979;27;92018;-58
2023/01/09 06:15:49;;;;;;;5.37;0.87;;;22.10;42.50;;;;;;5060091;27;94216;-58
2023/01/09 06:18:18;;;;;;;1.03;0.80;;;22.00;42.40;;;;;;5042995;27;93832;-58
2023/01/09 06:20:46;;;;;;;1.67;0.77;;;22.00;42.50;;;;;;5059072;27;92033;-58
2023/01/09 06:23:13;;;;;;;1.07;0.70;;;22.00;42.50;;;;;;5059853;27;93750;-58
2023/01/09 06:25:42;;;;;;;2.80;1.33;;;22.00;42.50;;;;;;5060914;27;92823;-60
2023/01/09 06:28:11;;;;;;;0.83;0.47;;;22.00;42.50;;;;;;5059759;27;92831;-58
2023/01/09 06:30:39;;;;;;;1.43;0.83;;;22.00;42.50;;;;;;5062084;27;92087;-58
2023/01/09 06:33:07;;;;;;;0.50;0.50;;;21.90;42.50;;;;;;5059979;27;92655;-59
2023/01/09 06:35:35;;;;;;;1.47;1.10;;;22.00;42.50;;;;;;5060351;27;95170;-58
2023/01/09 06:38:04;;;;;;;0.50;0.50;;;21.90;42.50;;;;;;5059605;27;94937;-57
2023/01/09 06:40:32;;;;;;;0.50;0.50;;;22.00;42.60;;;;;;5044494;27;93902;-58
2023/01/09 06:43:00;;;;;;;0.50;0.50;;;21.90;42.50;;;;;;5052823;27;92065;-59
2023/01/09 06:45:29;;;;;;;1.20;0.83;;;21.90;42.50;;;;;;5061145;27;93033;-60
2023/01/09 06:47:57;;;;;;;0.60;0.60;;;21.90;42.60;;;;;;5049356;27;94008;-60
2023/01/09 06:50:25;;;;;;;0.70;0.60;;;21.90;42.50;;;;;;5055512;27;91923;-60
2023/01/09 06:52:53;;;;;;;0.63;0.40;;;21.90;42.60;;;;;;5044287;27;91346;-58
2023/01/09 06:55:21;;;;;;;0.47;0.30;;;21.90;42.50;;;;;;5040635;28;94251;-59
2023/01/09 06:57:49;;;;;;;0.60;0.50;;;21.90;42.60;;;;;;5050816;27;93884;-59
2023/01/09 07:00:18;;;;;;;0.93;0.50;;;21.90;42.60;;;;;;5052968;27;93096;-60
2023/01/09 07:02:47;;;;;;;0.83;0.70;;;21.90;42.60;;;;;;5050748;27;92053;-60
2023/01/09 07:05:16;;;;;;;1.07;0.60;;;21.90;42.60;;;;;;5060804;27;93299;-60
2023/01/09 07:07:44;;;;;;;1.13;0.67;;;21.90;42.60;;;;;;5059913;27;93854;-58
2023/01/09 07:10:12;;;;;;;1.50;0.73;;;21.90;42.60;;;;;;5039941;27;92035;-59
2023/01/09 07:12:40;;;;;;;0.50;0.43;;;21.90;42.60;;;;;;5040768;28;92105;-59
2023/01/09 07:15:09;;;;;;;0.60;0.50;;;21.90;42.70;;;;;;5038855;27;94348;-59
2023/01/09 07:17:37;;;;;;;1.40;0.40;;;21.90;42.70;;;;;;5040140;27;92914;-59
2023/01/09 07:20:07;;;;;;;0.67;0.50;;;21.80;42.60;;;;;;5040098;28;92047;-59
2023/01/09 07:22:35;;;;;;;0.50;0.50;;;21.80;42.60;;;;;;5040914;28;92043;-59
2023/01/09 07:25:04;;;;;;;0.30;0.30;;;21.80;42.60;;;;;;5039694;27;94156;-59
2023/01/09 07:27:32;;;;;;;0.50;0.50;;;21.80;42.60;;;;;;5053498;27;94797;-59
2023/01/09 07:30:00;;;;;;;0.87;0.47;;;21.80;42.70;;;;;;5058937;27;91967;-59
2023/01/09 07:32:28;;;;;;;0.40;0.40;;;21.80;42.60;;;;;;5060770;27;92046;-59
2023/01/09 07:34:56;;;;;;;0.40;0.40;;;21.80;42.60;;;;;;5051106;27;93292;-59
2023/01/09 07:37:25;;;;;;;0.40;0.40;;;21.80;42.70;;;;;;5040734;27;93868;-59
2023/01/09 07:39:53;;;;;;;0.90;0.47;;;21.70;42.60;;;;;;5050999;27;92091;-59
2023/01/09 07:42:21;;;;;;;0.73;0.67;;;21.70;42.60;;;;;;5058764;27;91357;-59
2023/01/09 07:44:50;;;;;;;0.53;0.50;;;21.70;42.60;;;;;;5057816;27;94209;-59
2023/01/09 07:47:18;;;;;;;0.43;0.43;;;21.70;42.60;;;;;;5059538;27;93657;-59
2023/01/09 07:49:46;;;;;;;0.40;0.40;;;21.70;42.70;;;;;;5059819;27;93021;-59
2023/01/09 07:52:14;;;;;;;1.37;0.70;;;21.70;42.70;;;;;;5039975;28;91970;-59
2023/01/09 07:54:43;;;;;;;0.57;0.47;;;21.70;42.70;;;;;;5038950;28;94244;-59
2023/01/09 07:57:11;;;;;;;0.60;0.60;;;21.70;42.70;;;;;;5039336;28;93893;-59
2023/01/09 07:59:39;;;;;;;0.57;0.40;;;21.70;42.70;;;;;;5039428;27;91945;-59
2023/01/09 08:02:08;;;;;;;0.30;0.30;;;21.70;42.70;;;;;;5039681;28;92070;-59
2023/01/09 08:04:36;;;;;;;0.40;0.40;;;21.70;42.70;;;;;;5039400;28;93032;-59
2023/01/09 08:07:05;;;;;;;0.70;0.70;;;21.70;42.70;;;;;;5039311;27;91545;-59
2023/01/09 08:09:33;;;;;;;0.90;0.40;;;21.70;42.80;;;;;;5038518;27;91989;-59
2023/01/09 08:12:03;;;;;;;0.30;0.30;;;21.70;42.70;;;;;;5037920;28;92777;-58
2023/01/09 08:14:31;;;;;;;0.97;0.50;;;21.60;42.60;;;;;;5037313;27;95168;-59
2023/01/09 08:16:59;;;;;;;0.53;0.40;;;21.70;42.70;;;;;;5037937;27;94968;-59
2023/01/09 08:19:27;;;;;;;0.50;0.50;;;21.70;42.80;;;;;;5039610;27;91878;-59
2023/01/09 08:21:55;;;;;;;0.40;0.40;;;21.60;42.70;;;;;;5039639;28;92135;-59
2023/01/09 08:24:23;;;;;;;0.50;0.50;;;21.60;43.30;;;;;;5038700;27;93322;-59
2023/01/09 08:26:51;;;;;;;0.50;0.50;;;21.60;42.70;;;;;;5039073;27;93892;-59
2023/01/09 08:29:20;;;;;;;0.73;0.73;;;21.60;42.80;;;;;;5039442;27;92115;-59
2023/01/09 08:31:49;;;;;;;0.40;0.40;;;21.60;42.80;;;;;;5039621;28;91273;-59
2023/01/09 08:34:17;;;;;;;0.47;0.47;;;21.60;42.80;;;;;;5039032;28;93082;-59
2023/01/09 08:36:45;;;;;;;0.73;0.50;;;21.60;43.40;;;;;;5038901;27;92936;-59
2023/01/09 08:39:13;;;;;;;1.07;0.90;;;21.60;42.80;;;;;;5039162;28;93012;-59
2023/01/09 08:47:14;;;;;;;0.83;0.60;;;21.50;42.80;;;;;;5038930;28;93864;-59
2023/01/09 08:49:42;;;;;;;0.33;0.33;;;21.50;42.80;;;;;;5039816;27;92060;-59
2023/01/09 08:52:10;;;;;;;1.33;0.50;;;21.50;42.80;;;;;;5039083;28;92072;-59
2023/01/09 08:54:38;;;;;;;0.30;0.30;;;21.50;42.80;;;;;;5038975;28;93765;-59
2023/01/09 08:57:07;;;;;;;0.47;0.47;;;21.50;42.80;;;;;;5039125;28;93845;-58
2023/01/09 08:59:36;;;;;;;1.00;0.60;;;21.50;43.50;;;;;;5039055;27;92045;-59
2023/01/09 09:02:04;;;;;;;0.70;0.40;;;21.50;42.90;;;;;;5039124;28;92061;-59
2023/01/09 09:04:33;;;;;;;0.83;0.40;;;21.50;42.90;;;;;;5038388;27;94260;-58
2023/01/09 09:07:01;;;;;;;0.30;0.30;;;21.50;43.60;;;;;;5038482;28;94843;-58
2023/01/09 09:09:29;;;;;;;0.30;0.30;;;21.50;42.90;;;;;;5039735;28;91981;-58
2023/01/09 09:11:57;;;;;;;0.50;0.50;;;21.50;42.90;;;;;;5039193;27;92119;-59
2023/01/09 09:17:12;;;;;;;0.40;0.40;;;21.50;43.60;;;;;;5038401;27;92818;-58
2023/01/09 09:19:41;;;;;;;0.67;0.60;;;21.40;42.90;;;;;;5038769;28;92040;-58
2023/01/09 09:22:09;;;;;;;0.30;0.30;;;21.40;42.90;;;;;;5039132;28;91196;-59
2023/01/09 09:24:37;;;;;;;0.50;0.43;;;21.40;42.90;;;;;;5038031;28;94319;-59
2023/01/09 09:27:05;;;;;;;0.37;0.30;;;21.40;42.90;;;;;;5038440;27;93111;-58
2023/01/09 09:29:33;;;;;;;0.37;0.37;;;21.40;42.90;;;;;;5038358;27;93048;-58
2023/01/09 09:32:01;;;;;;;0.53;0.50;;;21.40;42.90;;;;;;5039080;28;91919;-59
2023/01/09 09:34:31;;;;;;;1.40;0.50;;;21.40;42.90;;;;;;5038362;28;93126;-58
2023/01/09 09:36:59;;;;;;;0.30;0.30;;;21.40;42.90;;;;;;5038095;27;92867;-58
2023/01/09 09:39:27;;;;;;;0.40;0.40;;;21.40;42.90;;;;;;5042259;27;92148;-59
2023/01/09 09:45:18;;;;;;;0.20;0.20;;;21.40;42.90;;;;;;5019484;28;94284;-59
2023/01/09 09:47:52;;;;;;;0.30;0.30;;;21.40;42.90;;;;;;5020143;28;91781;-59
2023/01/09 09:50:33;;;;;;;0.30;0.30;;;21.40;43.00;;;;;;5031805;27;92336;-59
2023/01/09 09:53:03;;;;;;;0.50;0.50;;;21.30;42.90;;;;;;5041903;28;92081;-60
2023/01/09 09:55:33;;;;;;;1.63;0.50;;;21.40;43.00;;;;;;5040556;28;95064;-59
2023/01/09 09:58:04;;;;;;;0.40;0.20;;;21.40;43.00;;;;;;5041207;27;94790;-58
2023/01/09 10:00:32;;;;;;;0.20;0.20;;;21.30;42.90;;;;;;5042337;27;92065;-59
2023/01/09 10:03:02;;;;;;;0.30;0.30;;;21.40;43.00;;;;;;5042085;28;92085;-59
2023/01/09 10:05:33;;;;;;;0.30;0.30;;;21.30;42.90;;;;;;5041540;27;94100;-59
2023/01/09 10:08:04;;;;;;;0.20;0.20;;;21.30;42.90;;;;;;5041480;27;92993;-59
2023/01/09 10:10:44;;;;;;;0.30;0.30;;;21.30;42.90;;;;;;5042051;27;91789;-58
2023/01/09 10:16:02;;;;;;;0.80;0.50;;;21.30;42.90;;;;;;5041520;28;93181;-59
2023/01/09 10:18:34;;;;;;;1.90;0.30;;;21.30;42.90;;;;;;5041124;28;93798;-59
2023/01/09 10:21:05;;;;;;;0.40;0.30;;;21.30;43.00;;;;;;5041370;27;93095;-58
2023/01/09 10:24:06;;;;;;;0.30;0.30;;;21.30;43.00;;;;;;5042105;28;92038;-59
2023/01/09 10:26:37;;;;;;;0.30;0.30;;;21.30;43.00;;;;;;5041156;28;93262;-59
2023/01/09 10:29:31;;;;;;;0.27;0.27;;;21.30;43.00;;;;;;5041152;27;92995;-59
2023/01/09 10:32:07;;;;;;;0.20;0.20;;;21.30;43.00;;;;;;5041028;27;91884;-58
2023/01/09 10:34:42;;;;;;;0.47;0.20;;;21.30;43.00;;;;;;5041079;28;91931;-58
2023/01/09 10:37:15;;;;;;;0.73;0.50;;;21.30;43.00;;;;;;5040542;28;94756;-58
2023/01/09 10:39:45;;;;;;;0.60;0.50;;;21.20;43.00;;;;;;5041447;27;93855;-59
2023/01/09 10:42:18;;;;;;;0.33;0.30;;;21.30;43.00;;;;;;5040996;27;92076;-59
2023/01/09 10:44:49;;;;;;;1.20;0.63;;;21.20;43.00;;;;;;5041545;28;92137;-59
2023/01/09 10:47:19;;;;;;;1.50;0.50;;;21.30;43.00;;;;;;5040375;28;93051;-59
2023/01/09 10:49:49;;;;;;;0.50;0.30;;;21.20;43.00;;;;;;5039796;27;94816;-58
2023/01/09 10:52:19;;;;;;;0.30;0.30;;;21.30;43.00;;;;;;5041080;28;92002;-59
2023/01/09 10:54:51;;;;;;;0.37;0.37;;;21.20;43.00;;;;;;5040876;27;92056;-59
2023/01/09 10:57:40;;;;;;;0.37;0.37;;;21.20;43.00;;;;;;5040853;28;93119;-58
2023/01/09 11:00:15;;;;;;;1.70;0.53;;;21.20;43.00;;;;;;5040739;27;94098;-59
2023/01/09 11:02:43;;;;;;;0.40;0.40;;;21.20;43.00;;;;;;5041101;27;92146;-59
2023/01/09 11:05:16;;;;;;;0.50;0.50;;;21.20;43.00;;;;;;5041522;28;91305;-59
2023/01/09 11:07:47;;;;;;;0.20;0.20;;;21.20;43.00;;;;;;5040005;28;94250;-59
2023/01/09 11:10:16;;;;;;;0.40;0.40;;;21.20;43.00;;;;;;5040388;27;92954;-60
2023/01/09 11:12:45;;;;;;;0.40;0.40;;;21.20;43.00;;;;;;5039821;27;93045;-59
2023/01/09 11:15:27;;;;;;;2.00;0.50;;;21.20;43.00;;;;;;5040695;27;91881;-59
2023/01/09 11:18:16;;;;;;;1.93;0.37;;;21.20;43.10;;;;;;5040687;28;93085;-59
2023/01/09 11:20:44;;;;;;;3.93;0.50;;;21.20;43.10;;;;;;5040686;27;94010;-59
2023/01/09 11:23:31;;;;;;;0.83;0.47;;;21.20;43.00;;;;;;5040289;27;92690;-58
2023/01/09 11:26:00;;;;;;;1.80;0.40;;;21.20;43.80;;;;;;5040429;28;91961;-59
2023/01/09 11:28:28;;;;;;;0.10;0.10;;;21.20;43.10;;;;;;5040426;28;94536;-59
2023/01/09 11:31:00;;;;;;;1.33;0.30;;;21.20;43.10;;;;;;5040524;27;93977;-60
2023/01/09 11:33:29;;;;;;;0.20;0.20;;;21.20;43.10;;;;;;5040178;28;92061;-59
2023/01/09 11:36:03;;;;;;;0.50;0.40;;;21.20;43.10;;;;;;5039876;28;92129;-59
2023/01/09 11:38:44;;;;;;;0.27;0.27;;;21.20;43.10;;;;;;5039387;28;95150;-59
2023/01/09 11:41:17;;;;;;;1.00;0.30;;;21.20;43.10;;;;;;5039437;27;94843;-58
2023/01/09 11:43:45;;;;;;;0.87;0.23;;;21.20;43.10;;;;;;5040552;27;92121;-59
2023/01/09 11:46:31;;;;;;;0.30;0.30;;;21.20;43.10;;;;;;5040029;27;92025;-60
2023/01/09 11:49:00;;;;;;;0.40;0.40;;;21.20;43.20;;;;;;5039619;27;93123;-60
2023/01/09 11:51:29;;;;;;;0.50;0.47;;;21.10;43.00;;;;;;5040054;27;93987;-59
2023/01/09 11:54:14;;;;;;;0.50;0.50;;;21.20;43.20;;;;;;5040452;28;92045;-60
2023/01/09 11:56:43;;;;;;;0.60;0.50;;;21.10;43.20;;;;;;5039318;27;91145;-59
2023/01/09 11:59:12;;;;;;;0.50;0.50;;;21.10;43.10;;;;;;5039840;28;94513;-59
2023/01/09 12:01:57;;;;;;;0.50;0.40;;;21.10;43.20;;;;;;5039239;27;92929;-59
2023/01/09 12:04:28;;;;;;;2.73;0.70;;;21.10;43.20;;;;;;5039620;27;93045;-59
2023/01/09 12:07:19;;;;;;;0.50;0.50;;;21.10;43.20;;;;;;5039211;27;92101;-60
2023/01/09 12:09:53;;;;;;;0.30;0.20;;;21.10;43.20;;;;;;5039215;27;93007;-59
2023/01/09 12:12:28;;;;;;;0.47;0.47;;;21.10;43.20;;;;;;5039289;27;94134;-58
2023/01/09 12:15:18;;;;;;;1.10;0.70;;;21.10;43.20;;;;;;5039737;28;91904;-59
2023/01/09 12:17:58;;;;;;;0.77;0.40;;;21.10;43.20;;;;;;5039926;28;92049;-59
2023/01/09 12:20:37;;;;;;;1.20;0.53;;;21.10;43.60;;;;;;5038512;28;94159;-59
2023/01/09 12:23:18;;;;;;;0.40;0.40;;;21.10;43.20;;;;;;5037863;27;93040;-59
2023/01/09 12:25:50;;;;;;;0.40;0.40;;;21.10;43.20;;;;;;5038819;28;92259;-59
2023/01/09 12:28:38;;;;;;;0.40;0.40;;;21.10;43.20;;;;;;5037740;28;92228;-59
2023/01/09 12:31:27;;;;;;;0.30;0.30;;;21.10;43.20;;;;;;5038127;28;95315;-58
2023/01/09 12:33:59;;;;;;;0.97;0.40;;;21.10;43.20;;;;;;5038755;27;93918;-59
2023/01/09 12:36:31;;;;;;;0.50;0.50;;;21.10;43.20;;;;;;5039757;27;91957;-59
2023/01/09 12:39:01;;;;;;;0.67;0.40;;;21.10;43.20;;;;;;5039694;28;92072;-58
2023/01/09 12:41:48;;;;;;;0.50;0.50;;;21.10;43.20;;;;;;5039041;27;94184;-58
2023/01/09 12:44:30;;;;;;;0.67;0.67;;;21.10;43.20;;;;;;5038889;28;93866;-58
2023/01/09 12:47:11;;;;;;;0.27;0.27;;;21.10;43.20;;;;;;5039543;27;91943;-58
2023/01/09 12:49:41;;;;;;;0.33;0.33;;;21.10;43.20;;;;;;5039988;27;91208;-60
2023/01/09 12:52:10;;;;;;;1.67;0.40;;;21.10;43.20;;;;;;5038981;27;93146;-58
2023/01/09 12:54:41;;;;;;;0.70;0.60;;;21.10;43.20;;;;;;5038582;28;93819;-58
2023/01/09 12:57:14;;;;;;;1.40;0.47;;;21.10;43.30;;;;;;5039224;27;92860;-59
2023/01/09 12:59:42;;;;;;;0.37;0.37;;;21.00;43.20;;;;;;5039768;27;92062;-59
2023/01/09 13:02:19;;;;;;;0.90;0.40;;;21.00;43.20;;;;;;5038633;28;94110;-58
2023/01/09 13:04:50;;;;;;;0.50;0.50;;;21.00;43.20;;;;;;5038994;27;93780;-59
2023/01/09 13:07:20;;;;;;;1.10;0.60;;;21.00;43.20;;;;;;5038640;27;91966;-59
2023/01/09 13:09:50;;;;;;;2.77;0.47;;;21.00;43.20;;;;;;5039023;28;92024;-57
2023/01/09 13:12:20;;;;;;;0.50;0.50;;;21.00;43.20;;;;;;5037961;28;95667;-59
2023/01/09 13:14:52;;;;;;;2.93;0.70;;;21.00;43.20;;;;;;5038973;28;93878;-59
2023/01/09 13:17:23;;;;;;;1.17;0.73;;;21.00;43.20;;;;;;5039537;28;92184;-58
2023/01/09 13:19:52;;;;;;;0.47;0.40;;;21.00;43.20;;;;;;5038775;28;92011;-58